Time,TemperatureF,DewpointF,PressureIn,WindDirection,WindDirectionDegrees,WindSpeedMPH,WindSpeedGustMPH,Humidity,HourlyPrecipIn,Conditions,Clouds,dailyrainin,SolarRadiationWatts/m^2,SoftwareType,DateUTC
2013-02-20 00:01:00,23.0,9.0,-100.00,West,268,0.0,0.0,55,-99.99,,,-99.99,0.000000,,2013-02-20 07:01:00,
2013-02-20 00:11:00,23.0,9.0,-100.00,West,268,0.0,0.0,55,-99.99,,,-99.99,0.000000,,2013-02-20 07:11:00,
2013-02-20 00:42:00,22.0,10.0,-100.00,WSW,255,0.0,0.0,59,-99.99,,,-99.99,0.000000,,2013-02-20 07:42:00,
2013-02-20 00:52:00,22.0,10.0,-100.00,WSW,255,0.0,0.0,59,-99.99,,,-99.99,0.000000,,2013-02-20 07:52:00,
2013-02-20 01:01:00,22.0,10.0,-100.00,WSW,255,0.0,0.0,59,-99.99,,,-99.99,0.000000,,2013-02-20 08:01:00,
2013-02-20 01:11:00,22.0,10.0,-100.00,WSW,255,0.0,0.0,59,-99.99,,,-99.99,0.000000,,2013-02-20 08:11:00,
2013-02-20 01:42:00,21.0,12.0,-100.00,West,262,0.0,0.0,67,-99.99,,,-99.99,0.000000,,2013-02-20 08:42:00,
2013-02-20 01:52:00,21.0,12.0,-100.00,West,262,0.0,0.0,67,-99.99,,,-99.99,0.000000,,2013-02-20 08:52:00,
2013-02-20 02:01:00,21.0,12.0,-100.00,West,262,0.0,0.0,67,-99.99,,,-99.99,0.000000,,2013-02-20 09:01:00,
2013-02-20 02:11:00,21.0,12.0,-100.00,West,262,0.0,0.0,67,-99.99,,,-99.99,0.000000,,2013-02-20 09:11:00,
2013-02-20 02:42:00,21.0,10.0,-100.00,West,260,0.0,0.0,63,-99.99,,,-99.99,0.000000,,2013-02-20 09:42:00,
2013-02-20 02:52:00,21.0,10.0,-100.00,West,260,0.0,0.0,63,-99.99,,,-99.99,0.000000,,2013-02-20 09:52:00,
2013-02-20 03:01:00,21.0,10.0,-100.00,West,260,0.0,0.0,63,-99.99,,,-99.99,0.000000,,2013-02-20 10:01:00,
2013-02-20 03:12:00,21.0,10.0,-100.00,West,260,0.0,0.0,63,-99.99,,,-99.99,0.000000,,2013-02-20 10:12:00,
2013-02-20 03:42:00,21.0,10.0,-100.00,West,265,5.0,7.0,62,-99.99,,,-99.99,0.000000,,2013-02-20 10:42:00,
2013-02-20 03:52:00,21.0,10.0,-100.00,West,265,5.0,7.0,62,-99.99,,,-99.99,0.000000,,2013-02-20 10:52:00,
2013-02-20 04:02:00,21.0,10.0,-100.00,West,265,5.0,7.0,62,-99.99,,,-99.99,0.000000,,2013-02-20 11:02:00,
2013-02-20 04:11:00,21.0,10.0,-100.00,West,265,5.0,7.0,62,-99.99,,,-99.99,0.000000,,2013-02-20 11:11:00,
2013-02-20 04:42:00,21.0,10.0,-100.00,West,270,5.0,6.0,61,-99.99,,,-99.99,0.000000,,2013-02-20 11:42:00,
2013-02-20 04:52:00,21.0,10.0,-100.00,West,270,5.0,6.0,61,-99.99,,,-99.99,0.000000,,2013-02-20 11:52:00,
2013-02-20 05:01:00,21.0,10.0,-100.00,West,270,5.0,6.0,61,-99.99,,,-99.99,0.000000,,2013-02-20 12:01:00,
2013-02-20 05:11:00,21.0,10.0,-100.00,West,270,5.0,6.0,61,-99.99,,,-99.99,0.000000,,2013-02-20 12:11:00,
2013-02-20 05:42:00,20.0,9.0,-100.00,West,272,0.0,4.0,61,-99.99,,,-99.99,0.000000,,2013-02-20 12:42:00,
2013-02-20 05:53:00,20.0,9.0,-100.00,West,272,0.0,4.0,61,-99.99,,,-99.99,0.000000,,2013-02-20 12:53:00,
2013-02-20 06:01:00,20.0,9.0,-100.00,West,272,0.0,4.0,61,-99.99,,,-99.99,0.000000,,2013-02-20 13:01:00,
2013-02-20 06:11:00,20.0,9.0,-100.00,West,272,0.0,4.0,61,-99.99,,,-99.99,0.000000,,2013-02-20 13:11:00,
2013-02-20 06:42:00,19.0,9.0,-100.00,West,275,0.0,0.0,65,-99.99,,,-99.99,0.000000,,2013-02-20 13:42:00,
2013-02-20 06:52:00,19.0,9.0,-100.00,West,275,0.0,0.0,65,-99.99,,,-99.99,0.000000,,2013-02-20 13:52:00,
2013-02-20 07:01:00,19.0,9.0,-100.00,West,275,0.0,0.0,65,-99.99,,,-99.99,0.000000,,2013-02-20 14:01:00,
2013-02-20 07:11:00,19.0,9.0,-100.00,West,275,0.0,0.0,65,-99.99,,,-99.99,0.000000,,2013-02-20 14:11:00,
2013-02-20 07:42:00,17.0,8.0,-100.00,West,270,2.0,4.0,67,-99.99,,,-99.99,1.000000,,2013-02-20 14:42:00,
2013-02-20 07:52:00,17.0,8.0,-100.00,West,270,2.0,4.0,67,-99.99,,,-99.99,1.000000,,2013-02-20 14:52:00,
2013-02-20 08:01:00,17.0,8.0,-100.00,West,270,2.0,4.0,67,-99.99,,,-99.99,1.000000,,2013-02-20 15:01:00,
2013-02-20 08:11:00,17.0,8.0,-100.00,West,270,2.0,4.0,67,-99.99,,,-99.99,1.000000,,2013-02-20 15:11:00,
2013-02-20 08:42:00,23.0,9.0,-100.00,WSW,243,3.0,6.0,54,-99.99,,,-99.99,76.000000,,2013-02-20 15:42:00,
2013-02-20 08:52:00,23.0,9.0,-100.00,WSW,243,3.0,6.0,54,-99.99,,,-99.99,76.000000,,2013-02-20 15:52:00,
2013-02-20 09:01:00,23.0,9.0,-100.00,WSW,243,3.0,6.0,54,-99.99,,,-99.99,76.000000,,2013-02-20 16:01:00,
2013-02-20 09:11:00,23.0,9.0,-100.00,WSW,243,3.0,6.0,54,-99.99,,,-99.99,76.000000,,2013-02-20 16:11:00,
2013-02-20 09:42:00,33.0,11.0,-100.00,ESE,114,2.0,6.0,40,-99.99,,,-99.99,281.000000,,2013-02-20 16:42:00,
2013-02-20 09:52:00,33.0,11.0,-100.00,ESE,114,2.0,6.0,40,-99.99,,,-99.99,281.000000,,2013-02-20 16:52:00,
2013-02-20 10:01:00,33.0,11.0,-100.00,ESE,114,2.0,6.0,40,-99.99,,,-99.99,281.000000,,2013-02-20 17:01:00,
2013-02-20 10:42:00,29.0,13.0,-100.00,East,82,8.0,11.0,51,-99.99,,,-99.99,482.000000,,2013-02-20 17:42:00,
2013-02-20 10:52:00,29.0,13.0,-100.00,East,82,8.0,11.0,51,-99.99,,,-99.99,482.000000,,2013-02-20 17:52:00,
2013-02-20 11:02:00,29.0,13.0,-100.00,East,82,8.0,11.0,51,-99.99,,,-99.99,482.000000,,2013-02-20 18:02:00,
2013-02-20 11:11:00,29.0,13.0,-100.00,East,82,8.0,11.0,51,-99.99,,,-99.99,482.000000,,2013-02-20 18:11:00,
2013-02-20 11:42:00,27.0,14.0,-100.00,East,93,11.0,15.0,57,-99.99,,,-99.99,570.000000,,2013-02-20 18:42:00,
2013-02-20 11:52:00,27.0,14.0,-100.00,East,93,11.0,15.0,57,-99.99,,,-99.99,570.000000,,2013-02-20 18:52:00,
2013-02-20 12:01:00,27.0,14.0,-100.00,East,93,11.0,15.0,57,-99.99,,,-99.99,570.000000,,2013-02-20 19:01:00,
2013-02-20 12:11:00,27.0,14.0,-100.00,East,93,11.0,15.0,57,-99.99,,,-99.99,570.000000,,2013-02-20 19:11:00,
2013-02-20 12:32:00,28.0,15.0,-100.00,ENE,72,8.0,16.0,58,-99.99,,,-99.99,596.000000,,2013-02-20 19:32:00,
2013-02-20 12:42:00,28.0,15.0,-100.00,ENE,72,8.0,16.0,58,-99.99,,,-99.99,596.000000,,2013-02-20 19:42:00,
2013-02-20 12:52:00,28.0,15.0,-100.00,ENE,72,8.0,16.0,58,-99.99,,,-99.99,596.000000,,2013-02-20 19:52:00,
2013-02-20 13:01:00,28.0,15.0,-100.00,ENE,72,8.0,16.0,58,-99.99,,,-99.99,596.000000,,2013-02-20 20:01:00,
2013-02-20 13:11:00,28.0,15.0,-100.00,ENE,72,8.0,16.0,58,-99.99,,,-99.99,596.000000,,2013-02-20 20:11:00,
2013-02-20 13:41:00,27.0,16.0,-100.00,East,79,11.0,16.0,62,-99.99,,,-99.99,765.000000,,2013-02-20 20:41:00,
2013-02-20 13:51:00,27.0,16.0,-100.00,East,79,11.0,16.0,62,-99.99,,,-99.99,765.000000,,2013-02-20 20:51:00,
2013-02-20 14:01:00,27.0,16.0,-100.00,East,79,11.0,16.0,62,-99.99,,,-99.99,765.000000,,2013-02-20 21:01:00,
2013-02-20 14:11:00,27.0,16.0,-100.00,East,79,11.0,16.0,62,-99.99,,,-99.99,765.000000,,2013-02-20 21:11:00,
2013-02-20 15:43:00,23.0,14.0,-100.00,East,80,6.0,14.0,69,-99.99,,,-99.99,499.000000,,2013-02-20 22:43:00,
2013-02-20 15:52:00,23.0,14.0,-100.00,East,80,6.0,14.0,69,-99.99,,,-99.99,499.000000,,2013-02-20 22:52:00,
2013-02-20 16:01:00,23.0,14.0,-100.00,East,80,6.0,14.0,69,-99.99,,,-99.99,499.000000,,2013-02-20 23:01:00,
2013-02-20 16:12:00,23.0,14.0,-100.00,East,80,6.0,14.0,69,-99.99,,,-99.99,499.000000,,2013-02-20 23:12:00,
2013-02-20 16:42:00,22.0,14.0,-100.00,East,90,1.0,12.0,71,-99.99,,,-99.99,213.000000,,2013-02-20 23:42:00,
2013-02-20 16:52:00,22.0,14.0,-100.00,East,90,1.0,12.0,71,-99.99,,,-99.99,213.000000,,2013-02-20 23:52:00,
2013-02-20 17:02:00,22.0,14.0,-100.00,East,90,1.0,12.0,71,-99.99,,,-99.99,213.000000,,2013-02-21 00:02:00,
2013-02-20 17:11:00,22.0,14.0,-100.00,East,90,1.0,12.0,71,-99.99,,,-99.99,213.000000,,2013-02-21 00:11:00,
2013-02-20 17:32:00,21.0,14.0,-100.00,East,80,0.0,0.0,73,-99.99,,,-99.99,104.000000,,2013-02-21 00:32:00,
2013-02-20 17:42:00,21.0,14.0,-100.00,East,80,0.0,0.0,73,-99.99,,,-99.99,104.000000,,2013-02-21 00:42:00,
2013-02-20 17:52:00,21.0,14.0,-100.00,East,80,0.0,0.0,73,-99.99,,,-99.99,104.000000,,2013-02-21 00:52:00,
2013-02-20 18:01:00,21.0,14.0,-100.00,East,80,0.0,0.0,73,-99.99,,,-99.99,104.000000,,2013-02-21 01:01:00,
2013-02-20 18:11:00,21.0,14.0,-100.00,East,80,0.0,0.0,73,-99.99,,,-99.99,104.000000,,2013-02-21 01:11:00,
2013-02-20 18:42:00,19.0,15.0,-100.00,ENE,73,4.0,8.0,85,-99.99,,,-99.99,14.000000,,2013-02-21 01:42:00,
2013-02-20 18:52:00,19.0,15.0,-100.00,ENE,73,4.0,8.0,85,-99.99,,,-99.99,14.000000,,2013-02-21 01:52:00,
2013-02-20 19:01:00,19.0,15.0,-100.00,ENE,73,4.0,8.0,85,-99.99,,,-99.99,14.000000,,2013-02-21 02:01:00,
2013-02-20 19:11:00,19.0,15.0,-100.00,ENE,73,4.0,8.0,85,-99.99,,,-99.99,14.000000,,2013-02-21 02:11:00,
2013-02-20 20:01:00,17.0,14.0,-100.00,East,97,2.0,5.0,87,-99.99,,,-99.99,0.000000,,2013-02-21 03:01:00,
2013-02-20 20:11:00,17.0,14.0,-100.00,East,97,2.0,5.0,87,-99.99,,,-99.99,0.000000,,2013-02-21 03:11:00,
2013-02-20 20:42:00,17.0,14.0,-100.00,North,353,0.0,2.0,88,-99.99,,,-99.99,0.000000,,2013-02-21 03:42:00,
2013-02-20 20:52:00,17.0,14.0,-100.00,North,353,0.0,2.0,88,-99.99,,,-99.99,0.000000,,2013-02-21 03:52:00,
2013-02-20 21:01:00,17.0,14.0,-100.00,North,353,0.0,2.0,88,-99.99,,,-99.99,0.000000,,2013-02-21 04:01:00,
2013-02-20 21:11:00,17.0,14.0,-100.00,North,353,0.0,2.0,88,-99.99,,,-99.99,0.000000,,2013-02-21 04:11:00,
2013-02-20 21:32:00,15.0,12.0,-100.00,NW,311,0.0,2.0,86,-99.99,,,-99.99,0.000000,,2013-02-21 04:32:00,
2013-02-20 21:42:00,15.0,12.0,-100.00,NW,311,0.0,2.0,86,-99.99,,,-99.99,0.000000,,2013-02-21 04:42:00,
2013-02-20 21:52:00,15.0,12.0,-100.00,NW,311,0.0,2.0,86,-99.99,,,-99.99,0.000000,,2013-02-21 04:52:00,
2013-02-20 22:02:00,15.0,12.0,-100.00,NW,311,0.0,2.0,86,-99.99,,,-99.99,0.000000,,2013-02-21 05:02:00,
2013-02-20 22:12:00,15.0,12.0,-100.00,NW,311,0.0,2.0,86,-99.99,,,-99.99,0.000000,,2013-02-21 05:12:00,
2013-02-20 22:37:00,16.0,12.0,-100.00,WSW,241,2.0,4.0,83,-99.99,,,-99.99,0.000000,,2013-02-21 05:37:00,
2013-02-20 22:46:00,16.0,12.0,-100.00,WSW,241,2.0,4.0,83,-99.99,,,-99.99,0.000000,,2013-02-21 05:46:00,
2013-02-20 22:58:00,16.0,12.0,-100.00,WSW,241,2.0,4.0,83,-99.99,,,-99.99,0.000000,,2013-02-21 05:58:00,
2013-02-20 23:01:00,16.0,12.0,-100.00,WSW,241,2.0,4.0,83,-99.99,,,-99.99,0.000000,,2013-02-21 06:01:00,
2013-02-20 23:11:00,16.0,12.0,-100.00,WSW,241,2.0,4.0,83,-99.99,,,-99.99,0.000000,,2013-02-21 06:11:00,
2013-02-20 23:31:00,16.0,12.0,-100.00,West,271,0.0,3.0,84,-99.99,,,-99.99,0.000000,,2013-02-21 06:31:00,
2013-02-20 23:41:00,16.0,12.0,-100.00,West,271,0.0,3.0,84,-99.99,,,-99.99,0.000000,,2013-02-21 06:41:00,
2013-02-20 23:51:00,16.0,12.0,-100.00,West,271,0.0,3.0,84,-99.99,,,-99.99,0.000000,,2013-02-21 06:51:00,